createdAt,value
2019-04-10T00:00:44.314Z,11.93
2019-04-10T00:03:25.533Z,9.30
2019-04-10T00:05:48.043Z,12.23
2019-04-10T00:08:19.658Z,10.10
2019-04-10T00:10:50.742Z,9.57
2019-04-10T00:13:22.532Z,11.97
2019-04-10T00:15:52.900Z,12.33
2019-04-10T00:18:23.950Z,11.33
2019-04-10T00:20:54.386Z,8.00
2019-04-10T00:23:24.800Z,8.30
2019-04-10T00:25:55.132Z,8.90
2019-04-10T00:28:25.540Z,8.23
2019-04-10T00:30:56.010Z,9.67
2019-04-10T00:33:27.059Z,10.27
2019-04-10T00:35:58.170Z,9.00
2019-04-10T00:38:29.483Z,9.47
2019-04-10T00:41:00.170Z,9.20
2019-04-10T00:43:30.824Z,8.07
2019-04-10T00:46:02.013Z,9.63
2019-04-10T00:48:32.467Z,8.50
2019-04-10T00:51:03.390Z,7.07
2019-04-10T00:53:34.924Z,7.67
2019-04-10T00:56:06.294Z,7.03
2019-04-10T00:58:37.549Z,9.20
2019-04-10T01:01:09.694Z,7.30
2019-04-10T01:03:46.627Z,6.97
2019-04-10T01:06:16.930Z,5.57
2019-04-10T01:08:48.609Z,9.47
2019-04-10T01:11:21.067Z,5.40
2019-04-10T01:13:51.877Z,7.97
2019-04-10T01:16:23.123Z,4.60
2019-04-10T01:18:53.538Z,5.73
2019-04-10T01:21:24.521Z,6.83
2019-04-10T01:23:56.060Z,6.07
2019-04-10T01:26:28.064Z,7.60
2019-04-10T01:28:59.031Z,6.27
2019-04-10T01:31:29.559Z,5.50
2019-04-10T01:34:19.028Z,7.73
2019-04-10T01:50:57.067Z,4.10
2019-04-10T01:53:28.040Z,4.80
2019-04-10T01:55:59.634Z,5.53
2019-04-10T01:58:34.928Z,5.80
2019-04-10T02:01:10.404Z,5.53
2019-04-10T02:03:40.520Z,5.00
2019-04-10T02:06:11.348Z,5.80
2019-04-10T02:08:42.324Z,4.93
2019-04-10T02:11:13.287Z,4.37
2019-04-10T02:13:43.568Z,5.73
2019-04-10T02:16:14.594Z,5.67
2019-04-10T02:18:45.730Z,4.53
2019-04-10T02:21:17.962Z,7.60
2019-04-10T02:23:48.535Z,7.37
2019-04-10T02:26:19.148Z,6.60
2019-04-10T02:28:49.308Z,6.53
2019-04-10T02:31:21.372Z,5.53
2019-04-10T02:33:51.764Z,4.93
2019-04-10T02:36:23.413Z,5.47
2019-04-10T02:39:06.930Z,6.63
2019-04-10T02:41:27.816Z,7.07
2019-04-10T02:43:59.849Z,4.80
2019-04-10T02:46:31.381Z,4.67
2019-04-10T02:49:01.828Z,4.93
2019-04-10T02:51:32.674Z,4.63
2019-04-10T02:54:04.964Z,6.30
2019-04-10T02:56:36.607Z,7.40
2019-04-10T02:59:07.386Z,6.43
2019-04-10T03:01:39.931Z,5.97
2019-04-10T03:04:11.866Z,4.97
2019-04-10T03:06:45.088Z,4.87
2019-04-10T03:09:32.237Z,10.70
2019-04-10T03:11:47.551Z,5.33
2019-04-10T03:14:18.946Z,5.77
2019-04-10T03:16:49.499Z,5.43
2019-04-10T03:19:19.959Z,4.13
2019-04-10T03:21:51.273Z,7.43
2019-04-10T03:24:21.496Z,4.40
2019-04-10T03:26:52.157Z,6.57
2019-04-10T03:29:22.480Z,4.13
2019-04-10T03:31:54.715Z,5.83
2019-04-10T03:34:31.290Z,7.60
2019-04-10T03:37:02.568Z,6.47
2019-04-10T03:39:35.744Z,8.17
2019-04-10T03:42:04.941Z,10.40
2019-04-10T03:44:35.369Z,9.53
2019-04-10T03:47:05.469Z,10.73
2019-04-10T03:49:36.159Z,10.57
2019-04-10T03:52:07.227Z,9.83
2019-04-10T03:54:38.940Z,8.43
2019-04-10T03:57:10.344Z,7.27
2019-04-10T03:59:41.695Z,8.37
2019-04-10T04:02:13.676Z,6.77
2019-04-10T04:04:44.116Z,6.67
2019-04-10T04:07:15.542Z,8.07
2019-04-10T04:09:48.071Z,5.07
2019-04-10T04:12:20.303Z,6.23
2019-04-10T04:14:59.014Z,9.43
2019-04-10T04:17:33.736Z,11.83
2019-04-10T04:20:06.509Z,6.93
2019-04-10T04:22:37.571Z,9.37
2019-04-10T04:25:08.686Z,8.53
2019-04-10T04:27:40.573Z,8.10
2019-04-10T04:30:10.999Z,6.47
2019-04-10T04:32:42.112Z,8.47
2019-04-10T04:35:13.228Z,7.37
2019-04-10T04:37:44.276Z,7.17
2019-04-10T04:40:14.958Z,7.30
2019-04-10T04:42:45.460Z,8.13
2019-04-10T04:45:15.783Z,8.57
2019-04-10T04:47:45.701Z,8.90
2019-04-10T04:50:15.691Z,6.93
2019-04-10T04:52:46.493Z,8.03
2019-04-10T04:55:17.662Z,6.23
2019-04-10T04:57:47.931Z,8.40
2019-04-10T05:00:18.410Z,5.53
2019-04-10T05:02:49.329Z,8.10
2019-04-10T05:05:19.652Z,7.87
2019-04-10T05:07:59.408Z,6.53
2019-04-10T05:10:22.907Z,8.17
2019-04-10T05:12:53.885Z,10.23
2019-04-10T05:29:30.674Z,9.97
2019-04-10T05:31:59.506Z,12.77
2019-04-10T05:34:29.931Z,11.00
2019-04-10T05:37:19.434Z,12.23
2019-04-10T05:39:51.955Z,10.87
2019-04-10T05:42:22.543Z,8.27
2019-04-10T05:44:52.831Z,11.53
2019-04-10T05:47:22.756Z,19.73
2019-04-10T05:49:53.332Z,9.30
2019-04-10T05:52:23.607Z,11.53
2019-04-10T05:54:53.307Z,11.73
2019-04-10T05:57:24.515Z,8.20
2019-04-10T05:59:54.878Z,14.03
2019-04-10T06:02:25.280Z,10.23
2019-04-10T06:04:56.041Z,11.63
2019-04-10T06:07:45.445Z,10.50
2019-04-10T06:10:15.838Z,9.57
2019-04-10T06:12:46.809Z,10.13
2019-04-10T06:15:16.997Z,9.27
2019-04-10T06:17:47.117Z,12.37
2019-04-10T06:20:17.859Z,10.07
2019-04-10T06:22:48.167Z,10.57
2019-04-10T06:25:19.515Z,8.17
2019-04-10T06:27:50.585Z,8.73
2019-04-10T06:30:21.287Z,8.20
2019-04-10T06:32:53.826Z,7.77
2019-04-10T06:35:26.149Z,9.13
2019-04-10T06:38:00.559Z,7.57
2019-04-10T06:43:55.578Z,8.77
2019-04-10T06:46:26.941Z,11.43
2019-04-10T06:48:56.731Z,9.73
2019-04-10T06:51:27.290Z,13.57
2019-04-10T06:54:02.794Z,10.40
2019-04-10T06:56:29.886Z,9.93
2019-04-10T07:04:25.097Z,33.00
2019-04-10T07:07:00.739Z,11.80
2019-04-10T07:09:27.071Z,33.37
2019-04-10T07:12:02.577Z,16.53
2019-04-10T07:20:26.120Z,10.73
2019-04-10T07:22:58.058Z,11.33
2019-04-10T07:25:30.457Z,15.57
2019-04-10T07:28:08.427Z,21.80
2019-04-10T07:30:36.180Z,13.87
2019-04-10T07:33:21.030Z,17.90
2019-04-10T07:35:55.142Z,25.30
2019-04-10T07:41:53.587Z,11.17
2019-04-10T07:47:48.300Z,17.47
2019-04-10T07:50:18.747Z,15.90
2019-04-10T07:52:57.877Z,12.70
2019-04-10T07:55:28.883Z,9.47
2019-04-10T07:57:59.547Z,15.70
2019-04-10T08:00:29.867Z,12.00
2019-04-10T08:03:00.309Z,10.70
2019-04-10T08:05:33.276Z,22.50
2019-04-10T08:08:05.019Z,18.97
2019-04-10T08:10:55.037Z,14.17
2019-04-10T08:13:25.347Z,11.33
2019-04-10T08:15:56.350Z,13.97
2019-04-10T08:18:27.576Z,15.40
2019-04-10T08:20:57.878Z,10.50
2019-04-10T08:23:28.491Z,13.33
2019-04-10T08:25:58.715Z,13.37
2019-04-10T08:28:30.570Z,16.10
2019-04-10T08:31:01.052Z,12.40
2019-04-10T08:33:38.613Z,13.27
2019-04-10T08:36:21.467Z,13.27
2019-04-10T08:38:52.867Z,21.70
2019-04-10T08:41:25.478Z,24.07
2019-04-10T08:43:58.922Z,28.03
2019-04-10T08:46:30.202Z,17.37
2019-04-10T08:49:03.537Z,23.17
2019-04-10T08:51:43.665Z,18.77
2019-04-10T08:54:14.241Z,17.27
2019-04-10T08:56:45.086Z,22.07
2019-04-10T08:59:15.896Z,13.20
2019-04-10T09:01:45.941Z,17.07
2019-04-10T09:04:16.170Z,17.67
2019-04-10T09:06:47.291Z,17.57
2019-04-10T09:09:17.931Z,23.87
2019-04-10T09:11:47.947Z,12.47
2019-04-10T09:14:19.096Z,16.77
2019-04-10T09:16:49.111Z,12.67
2019-04-10T09:19:20.448Z,16.77
2019-04-10T09:21:50.685Z,17.37
2019-04-10T09:24:21.643Z,16.73
2019-04-10T09:26:52.903Z,15.47
2019-04-10T09:29:24.724Z,14.20
2019-04-10T09:32:12.571Z,13.40
2019-04-10T09:34:45.552Z,40.40
2019-04-10T09:37:15.643Z,21.27
2019-04-10T09:40:05.588Z,17.37
2019-04-10T09:42:36.442Z,46.27
2019-04-10T09:45:07.830Z,36.53
2019-04-10T09:47:39.511Z,18.50
2019-04-10T09:50:10.172Z,11.27
2019-04-10T09:52:41.050Z,16.97
2019-04-10T09:55:11.727Z,12.40
2019-04-10T09:57:43.001Z,19.23
2019-04-10T10:00:14.683Z,9.20
2019-04-10T10:02:45.282Z,15.07
2019-04-10T10:05:15.563Z,14.80
2019-04-10T10:07:46.170Z,15.30
2019-04-10T10:10:20.645Z,17.13
2019-04-10T10:12:52.565Z,18.07
2019-04-10T10:15:25.255Z,19.93
2019-04-10T10:17:57.033Z,12.00
2019-04-10T10:20:29.207Z,14.57
2019-04-10T10:23:01.210Z,11.33
2019-04-10T10:25:31.542Z,17.00
2019-04-10T10:28:02.860Z,17.87
2019-04-10T10:30:33.726Z,13.83
2019-04-10T10:33:03.780Z,15.97
2019-04-10T10:35:33.660Z,12.43
2019-04-10T10:38:05.412Z,14.80
2019-04-10T10:40:36.234Z,12.60
2019-04-10T10:43:07.872Z,13.47
2019-04-10T10:45:38.729Z,13.37
2019-04-10T10:48:09.151Z,17.47
2019-04-10T10:50:39.502Z,14.07
2019-04-10T10:53:12.233Z,32.43
2019-04-10T10:55:42.185Z,23.87
2019-04-10T10:58:13.318Z,20.10
2019-04-10T11:00:44.379Z,22.10
2019-04-10T11:03:34.157Z,13.43
2019-04-10T11:06:04.676Z,44.67
2019-04-10T11:08:37.339Z,30.43
2019-04-10T11:11:08.620Z,33.93
2019-04-10T11:13:39.244Z,18.70
2019-04-10T11:16:10.618Z,16.13
2019-04-10T11:18:42.461Z,23.47
2019-04-10T11:21:14.126Z,32.33
2019-04-10T11:23:44.827Z,25.40
2019-04-10T11:26:19.964Z,38.23
2019-04-10T11:28:47.917Z,25.53
2019-04-10T11:31:18.358Z,21.67
2019-04-10T11:33:51.990Z,22.17
2019-04-10T11:36:21.073Z,16.33
2019-04-10T11:38:51.865Z,33.70
2019-04-10T11:41:25.957Z,31.13
2019-04-10T11:43:56.165Z,21.30
2019-04-10T11:46:31.078Z,18.73
2019-04-10T11:49:00.679Z,31.67
2019-04-10T11:51:35.659Z,36.53
2019-04-10T11:54:10.967Z,29.73
2019-04-10T11:56:38.485Z,15.57
2019-04-10T11:59:12.372Z,13.13
2019-04-10T12:01:46.774Z,16.53
2019-04-10T12:04:20.087Z,27.97
2019-04-10T12:06:53.593Z,19.40
2019-04-10T12:13:16.458Z,19.33
2019-04-10T12:16:12.582Z,16.10
2019-04-10T12:19:02.668Z,19.53
2019-04-10T12:21:33.677Z,9.87
2019-04-10T12:24:03.760Z,13.50
2019-04-10T12:26:34.100Z,14.77
2019-04-10T12:29:04.923Z,23.93
2019-04-10T12:31:38.101Z,26.73
2019-04-10T12:34:08.817Z,18.47
2019-04-10T12:36:39.281Z,14.20
2019-04-10T12:39:10.620Z,25.23
2019-04-10T12:42:23.877Z,23.70
2019-04-10T12:45:13.838Z,27.50
2019-04-10T12:47:44.052Z,27.27
2019-04-10T12:50:18.354Z,16.87
2019-04-10T12:52:49.410Z,16.40
2019-04-10T12:55:20.585Z,14.10
2019-04-10T12:57:51.074Z,12.47
2019-04-10T13:00:24.067Z,16.33
2019-04-10T13:02:54.540Z,20.20
2019-04-10T13:05:25.134Z,27.27
2019-04-10T13:08:19.150Z,32.07
2019-04-10T13:10:42.060Z,26.73
2019-04-10T13:13:17.784Z,27.93
2019-04-10T13:15:53.965Z,23.17
2019-04-10T13:18:25.314Z,29.07
2019-04-10T13:20:55.971Z,23.10
2019-04-10T13:23:26.380Z,28.90
2019-04-10T13:26:01.813Z,29.17
2019-04-10T13:28:31.736Z,35.83
2019-04-10T13:31:02.147Z,38.57
2019-04-10T13:33:33.499Z,23.93
2019-04-10T13:36:04.988Z,42.60
2019-04-10T13:38:36.645Z,56.57
2019-04-10T13:41:08.138Z,64.10
2019-04-10T13:43:38.786Z,26.63
2019-04-10T13:46:08.837Z,36.17
2019-04-10T13:48:39.703Z,21.90
2019-04-10T13:51:11.315Z,24.20
2019-04-10T13:53:41.920Z,22.30
2019-04-10T13:56:12.897Z,19.43
2019-04-10T13:58:50.827Z,36.07
2019-04-10T14:01:31.584Z,29.53
2019-04-10T14:04:03.144Z,18.47
2019-04-10T14:06:33.916Z,31.90
2019-04-10T14:09:27.103Z,29.10
2019-04-10T14:11:47.784Z,40.37
2019-04-10T14:17:50.187Z,18.60
2019-04-10T14:20:21.730Z,28.80
2019-04-10T14:23:04.198Z,28.70
2019-04-10T14:25:47.773Z,25.30
2019-04-10T14:28:43.012Z,36.83
2019-04-10T14:31:36.254Z,13.17
2019-04-10T14:34:07.802Z,28.53
2019-04-10T14:36:40.576Z,27.87
2019-04-10T14:39:20.916Z,26.10
2019-04-10T14:41:56.187Z,37.97
2019-04-10T14:44:28.750Z,25.60
2019-04-10T14:47:06.489Z,32.27
2019-04-10T14:49:45.148Z,34.13
2019-04-10T14:52:18.925Z,28.63
2019-04-10T14:54:52.218Z,29.67
2019-04-10T14:57:26.598Z,22.50
2019-04-10T15:00:10.709Z,26.37
2019-04-10T15:03:08.701Z,28.30
2019-04-10T15:05:51.048Z,20.97
2019-04-10T15:08:17.844Z,27.27
2019-04-10T15:10:48.486Z,25.83
2019-04-10T15:13:21.253Z,24.77
2019-04-10T15:15:52.910Z,27.23
2019-04-10T15:18:25.387Z,28.67
2019-04-10T15:21:12.722Z,47.80
2019-04-10T15:23:45.169Z,17.70
2019-04-10T15:26:19.732Z,45.70
2019-04-10T15:28:51.951Z,36.27
2019-04-10T15:31:28.701Z,43.77
2019-04-10T15:34:03.555Z,34.23
2019-04-10T15:36:36.151Z,21.67
2019-04-10T15:39:13.135Z,28.80
2019-04-10T15:41:45.532Z,32.90
2019-04-10T15:44:21.814Z,29.67
2019-04-10T15:46:54.755Z,30.00
2019-04-10T15:49:27.540Z,34.83
2019-04-10T15:52:01.540Z,55.07
2019-04-10T15:54:34.029Z,29.03
2019-04-10T15:57:07.311Z,46.50
2019-04-10T15:59:38.968Z,66.67
2019-04-10T16:02:13.607Z,35.23
2019-04-10T16:04:45.150Z,48.10
2019-04-10T16:07:20.209Z,34.67
2019-04-10T16:09:55.145Z,54.10
2019-04-10T16:12:31.288Z,77.83
2019-04-10T16:21:26.914Z,39.30
2019-04-10T16:24:04.939Z,49.20
2019-04-10T16:26:59.995Z,86.23
2019-04-10T16:33:20.173Z,69.30
2019-04-10T16:36:44.166Z,35.37
2019-04-10T16:39:58.608Z,33.50
2019-04-10T16:42:41.733Z,52.53
2019-04-10T16:45:53.301Z,48.83
2019-04-10T16:48:20.931Z,48.17
2019-04-10T16:50:53.892Z,52.47
2019-04-10T16:53:23.862Z,100.73
2019-04-10T16:55:54.814Z,80.57
2019-04-10T16:58:26.064Z,57.67
2019-04-10T17:00:59.454Z,84.17
2019-04-10T17:03:31.749Z,99.50
2019-04-10T17:06:03.986Z,42.53
2019-04-10T17:08:38.870Z,58.47
2019-04-10T17:11:14.878Z,64.20
2019-04-10T17:13:50.937Z,76.23
2019-04-10T17:16:29.312Z,77.27
2019-04-10T17:19:04.077Z,60.57
2019-04-10T17:21:38.424Z,69.43
2019-04-10T17:24:13.286Z,77.40
2019-04-10T17:26:46.690Z,106.40
2019-04-10T17:29:20.872Z,112.50
2019-04-10T17:32:00.976Z,66.27
2019-04-10T17:34:35.948Z,84.63
2019-04-10T17:37:17.821Z,95.27
2019-04-10T17:39:52.652Z,82.47
2019-04-10T17:42:46.343Z,52.87
2019-04-10T17:45:20.599Z,94.23
2019-04-10T17:48:05.132Z,58.30
2019-04-10T17:50:53.260Z,55.37
2019-04-10T17:53:33.501Z,54.00
2019-04-10T17:56:08.423Z,44.70
2019-04-10T17:58:41.710Z,68.77
2019-04-10T18:01:22.981Z,70.40
2019-04-10T18:04:05.626Z,92.40
2019-04-10T18:06:44.034Z,70.23
2019-04-10T18:09:18.424Z,49.40
2019-04-10T18:11:54.789Z,45.30
2019-04-10T18:14:31.484Z,40.47
2019-04-10T18:17:06.572Z,30.37
2019-04-10T18:19:47.201Z,32.03
2019-04-10T18:22:18.918Z,39.70
2019-04-10T18:24:51.670Z,39.33
2019-04-10T18:27:26.173Z,25.13
2019-04-10T18:29:59.926Z,34.60
2019-04-10T18:32:34.343Z,34.73
2019-04-10T18:35:16.418Z,34.33
2019-04-10T18:37:49.117Z,17.27
2019-04-10T18:40:23.468Z,33.30
2019-04-10T18:43:00.524Z,46.57
2019-04-10T18:45:54.836Z,36.07
2019-04-10T18:48:22.939Z,17.33
2019-04-10T18:50:57.629Z,38.60
2019-04-10T18:53:39.397Z,21.30
2019-04-10T18:56:13.316Z,25.77
2019-04-10T18:58:58.402Z,34.07
2019-04-10T19:01:43.208Z,20.87
2019-04-10T19:04:24.526Z,30.60
2019-04-10T19:07:01.988Z,38.60
2019-04-10T19:09:38.951Z,36.63
2019-04-10T19:12:16.687Z,35.63
2019-04-10T19:14:56.640Z,20.40
2019-04-10T19:17:29.454Z,19.20
2019-04-10T19:20:10.953Z,21.53
2019-04-10T19:22:46.039Z,18.67
2019-04-10T19:25:25.374Z,18.13
2019-04-10T19:27:58.084Z,22.93
2019-04-10T19:30:42.097Z,18.37
2019-04-10T19:33:14.076Z,29.13
2019-04-10T19:35:46.126Z,22.63
2019-04-10T19:38:18.986Z,23.73
2019-04-10T19:40:52.033Z,20.37
2019-04-10T19:43:27.142Z,14.37
2019-04-10T19:46:04.162Z,16.60
2019-04-10T19:48:35.569Z,24.77
2019-04-10T19:51:12.025Z,20.03
2019-04-10T19:53:45.842Z,18.07
2019-04-10T19:56:29.370Z,21.87
2019-04-10T19:59:02.996Z,25.97
2019-04-10T20:01:36.165Z,22.57
2019-04-10T20:04:18.820Z,34.43
2019-04-10T20:06:54.523Z,25.67
2019-04-10T20:09:30.556Z,26.20
2019-04-10T20:12:02.972Z,24.97
2019-04-10T20:14:36.756Z,26.63
2019-04-10T20:17:08.073Z,21.03
2019-04-10T20:19:40.402Z,25.47
2019-04-10T20:22:12.611Z,23.23
2019-04-10T20:24:45.428Z,38.77
2019-04-10T20:27:20.240Z,89.27
2019-04-10T20:30:13.331Z,29.87
2019-04-10T20:32:47.732Z,28.53
2019-04-10T20:37:58.869Z,23.10
2019-04-10T20:40:29.982Z,21.30
2019-04-10T20:43:02.677Z,51.20
2019-04-10T20:45:35.699Z,51.20
2019-04-10T20:48:12.065Z,32.40
2019-04-10T20:50:43.968Z,67.27
2019-04-10T20:53:16.333Z,31.87
2019-04-10T20:55:51.070Z,70.03
2019-04-10T20:58:22.931Z,27.47
2019-04-10T21:00:54.764Z,37.90
2019-04-10T21:03:25.617Z,29.10
2019-04-10T21:05:58.288Z,28.43
2019-04-10T21:08:30.269Z,32.77
2019-04-10T21:11:01.600Z,25.47
2019-04-10T21:13:36.278Z,23.50
2019-04-10T21:16:07.578Z,26.10
2019-04-10T21:18:39.721Z,34.03
2019-04-10T21:21:10.783Z,25.17
2019-04-10T21:23:42.092Z,25.60
2019-04-10T21:26:12.479Z,41.33
2019-04-10T21:28:44.207Z,33.40
2019-04-10T21:31:34.277Z,36.83
2019-04-10T21:34:23.682Z,23.00
2019-04-10T21:36:54.360Z,21.47
2019-04-10T21:39:25.672Z,21.83
2019-04-10T21:41:55.881Z,18.33
2019-04-10T21:44:26.712Z,19.23
2019-04-10T21:46:57.217Z,31.00
2019-04-10T21:49:28.339Z,21.40
2019-04-10T21:51:58.492Z,22.77
2019-04-10T21:54:29.332Z,23.37
2019-04-10T21:56:59.909Z,18.13
2019-04-10T21:59:31.424Z,17.63
2019-04-10T22:02:02.794Z,15.60
2019-04-10T22:04:33.608Z,28.23
2019-04-10T22:07:14.491Z,17.87
2019-04-10T22:09:51.160Z,24.57
2019-04-10T22:12:31.694Z,20.50
2019-04-10T22:14:58.336Z,20.60
2019-04-10T22:17:28.558Z,17.20
2019-04-10T22:19:59.276Z,17.97
2019-04-10T22:22:29.104Z,15.73
2019-04-10T22:25:01.209Z,23.23
2019-04-10T22:27:32.019Z,17.37
2019-04-10T22:30:04.869Z,21.07
2019-04-10T22:32:35.444Z,26.73
2019-04-10T22:35:10.961Z,14.10
2019-04-10T22:37:50.332Z,13.67
2019-04-10T22:40:25.648Z,14.00
2019-04-10T22:42:57.487Z,13.33
2019-04-10T22:45:31.007Z,15.10
2019-04-10T22:48:01.961Z,16.10
2019-04-10T22:50:32.562Z,22.97
2019-04-10T22:53:04.593Z,16.13
2019-04-10T22:55:40.002Z,16.67
2019-04-10T22:58:14.954Z,17.37
2019-04-10T23:00:46.456Z,16.37
2019-04-10T23:03:16.582Z,13.40
2019-04-10T23:05:47.002Z,13.50
2019-04-10T23:08:17.851Z,12.83
2019-04-10T23:10:48.901Z,13.03
2019-04-10T23:13:19.934Z,14.73
2019-04-10T23:15:51.463Z,12.23
2019-04-10T23:18:21.897Z,14.80
2019-04-10T23:20:52.842Z,15.97
2019-04-10T23:23:23.260Z,14.67
2019-04-10T23:25:54.110Z,13.60
2019-04-10T23:28:25.320Z,13.70
2019-04-10T23:30:55.888Z,13.87
2019-04-10T23:33:26.300Z,12.30
2019-04-10T23:35:57.937Z,12.83
2019-04-10T23:38:28.911Z,16.20
2019-04-10T23:40:59.115Z,18.30
2019-04-10T23:43:29.516Z,12.77
2019-04-10T23:46:02.058Z,15.37
2019-04-10T23:48:32.936Z,13.10
2019-04-10T23:51:03.393Z,14.90
2019-04-10T23:53:33.799Z,17.73
2019-04-10T23:56:04.267Z,13.17
2019-04-10T23:58:35.010Z,14.20
